Bookmark and Share
Track history (hours):
 

Mississippi Star

Last reported at 2014-Apr-18 20:28 UTC. Time now 2014-Apr-18 20:48 UTC.
Position N 52°25' E 004°45'.

Length 128 m; draft 7.5 m.

Type: Ship. MMSI: 248621000.

NotesDate/timePositionNaut miles runAvg speedWind from/ knotsBaromVisibWave heightAir tempDewpointWater temp
2014-Apr-18 20:28N 52°25' E 004°45'0 0.0
2014-Apr-18 19:31N 52°25' E 004°45'0 0.0
2014-Apr-18 18:31N 52°25' E 004°45'0 0.0
2014-Apr-18 17:31N 52°25' E 004°45'0 0.0
2014-Apr-18 16:31N 52°25' E 004°45'0 0.0
2014-Apr-18 15:31N 52°25' E 004°45'0 0.0
2014-Apr-18 14:28N 52°25' E 004°45'0 0.0
2014-Apr-18 13:28N 52°25' E 004°45'0 0.0
2014-Apr-18 12:31N 52°25' E 004°45'0 0.0
2014-Apr-18 11:31N 52°25' E 004°45'0 0.1
2014-Apr-18 10:33N 52°25' E 004°45'1 0.5
2014-Apr-18 09:28N 52°25' E 004°45'0 0.0
2014-Apr-18 08:22N 52°25' E 004°45'0 0.0
2014-Apr-18 07:31N 52°25' E 004°45'0 0.0
2014-Apr-18 06:31N 52°25' E 004°45'0 0.0
2014-Apr-18 05:28N 52°25' E 004°45'0 0.0
2014-Apr-18 04:31N 52°25' E 004°45'0 0.0
2014-Apr-18 03:28N 52°25' E 004°45'0 0.0
2014-Apr-18 02:31N 52°25' E 004°45'0 0.0
2014-Apr-18 01:31N 52°25' E 004°45'0 0.0
2014-Apr-18 00:25N 52°25' E 004°45'0 0.0
2014-Apr-17 23:31N 52°25' E 004°45'0 0.0
2014-Apr-17 22:25N 52°25' E 004°45'0 0.0
2014-Apr-17 21:31N 52°25' E 004°45'0 0.0
2014-Apr-17 20:31N 52°25' E 004°45'0 0.0
2014-Apr-17 19:31N 52°25' E 004°45'0 0.0
2014-Apr-17 18:31N 52°25' E 004°45'0 0.0
2014-Apr-17 17:31N 52°25' E 004°45'0 0.0
2014-Apr-17 16:31N 52°25' E 004°45'0 0.0
2014-Apr-17 15:32N 52°25' E 004°45'2 1.8
2014-Apr-17 14:34N 52°26' E 004°43'4 4.3
2014-Apr-17 13:33N 52°28' E 004°36'2 2.3
2014-Apr-17 12:34N 52°28' E 004°33'1110.7
2014-Apr-17 11:33N 52°29' E 004°15'6 5.6
2014-Apr-17 10:31N 52°28' E 004°06'0 0.0
2014-Apr-17 09:31N 52°28' E 004°06'0 0.0
2014-Apr-17 08:31N 52°28' E 004°06'0 0.0
2014-Apr-17 07:31N 52°28' E 004°06'0 0.0
2014-Apr-17 06:31N 52°28' E 004°06'0 0.0
2014-Apr-17 05:31N 52°28' E 004°06'0 0.0
2014-Apr-17 04:31N 52°28' E 004°06'0 0.0
2014-Apr-17 03:31N 52°28' E 004°06'0 0.0
2014-Apr-17 02:31N 52°28' E 004°06'0 0.0
2014-Apr-17 01:31N 52°28' E 004°06'0 0.1
2014-Apr-17 00:31N 52°27' E 004°06'0 0.0
2014-Apr-16 23:31N 52°27' E 004°06'0 0.0
2014-Apr-16 22:31N 52°27' E 004°06'0 0.0
2014-Apr-16 21:31N 52°27' E 004°06'0 0.0
2014-Apr-16 20:31N 52°27' E 004°06'0 0.0
2014-Apr-16 19:31N 52°27' E 004°06'0 0.1
2014-Apr-16 18:28N 52°28' E 004°06'0 0.0
2014-Apr-16 17:31N 52°28' E 004°06'0 0.0
2014-Apr-16 16:31N 52°28' E 004°06'0 0.0
2014-Apr-16 15:31N 52°28' E 004°06'0 0.0
2014-Apr-16 14:31N 52°28' E 004°06'0 0.1
2014-Apr-16 13:31N 52°27' E 004°06'0 0.1
2014-Apr-16 12:31N 52°27' E 004°06'0 0.0
2014-Apr-16 11:31N 52°27' E 004°06'0 0.0
2014-Apr-16 10:31N 52°27' E 004°06'0 0.0
2014-Apr-16 09:31N 52°27' E 004°06'0 0.0
2014-Apr-16 08:31N 52°27' E 004°06'0 0.0
2014-Apr-16 07:31N 52°27' E 004°06'0 0.1
2014-Apr-16 06:31N 52°28' E 004°06'0 0.0
2014-Apr-16 05:31N 52°28' E 004°06'0 0.0
2014-Apr-16 04:31N 52°28' E 004°06'0 0.0
2014-Apr-16 03:31N 52°28' E 004°06'0 0.0
2014-Apr-16 02:31N 52°28' E 004°06'0 0.2
2014-Apr-16 01:28N 52°27' E 004°06'0 0.0
2014-Apr-16 00:31N 52°27' E 004°06'0 0.0
2014-Apr-15 23:31N 52°27' E 004°06'0 0.0
2014-Apr-15 22:34N 52°27' E 004°06'0 0.0
2014-Apr-15 21:34N 52°27' E 004°06'0 0.0
2014-Apr-15 20:31N 52°27' E 004°06'0 0.0
2014-Apr-15 19:31N 52°27' E 004°06'0 0.0
2014-Apr-15 18:31N 52°27' E 004°06'0 0.1
2014-Apr-15 17:31N 52°27' E 004°06'0 0.1
2014-Apr-15 16:31N 52°28' E 004°06'0 0.0
2014-Apr-15 15:31N 52°28' E 004°06'0 0.0
2014-Apr-15 14:30N 52°28' E 004°06'0 0.1
2014-Apr-15 12:31N 52°27' E 004°06'0 0.0
2014-Apr-15 11:34N 52°27' E 004°06'0 0.0
2014-Apr-15 10:34N 52°27' E 004°06'0 0.0
2014-Apr-15 09:31N 52°27' E 004°06'0 0.0
2014-Apr-15 08:31N 52°27' E 004°06'0 0.0
2014-Apr-15 07:31N 52°27' E 004°06'0 0.0
2014-Apr-15 06:34N 52°27' E 004°06'0 0.0
2014-Apr-15 05:31N 52°27' E 004°06'0 0.0
2014-Apr-15 03:31N 52°27' E 004°06'0 0.0
2014-Apr-15 02:34N 52°27' E 004°06'0 0.0
2014-Apr-15 01:31N 52°27' E 004°06'0 0.1
2014-Apr-15 00:34N 52°27' E 004°06'0 0.0
2014-Apr-14 23:34N 52°27' E 004°06'0 0.1
2014-Apr-14 22:34N 52°27' E 004°06'5 5.4
2014-Apr-14 21:34N 52°26' E 003°57'53 8.8
2014-Apr-14 15:31N 51°38' E 003°20'1313.8
2014-Apr-14 14:34N 51°27' E 003°32'1212.0
2014-Apr-14 13:34N 51°21' E 003°48'16 7.9
2014-Apr-14 11:34N 51°22' E 004°13'7 6.5
2014-Apr-14 10:34N 51°17' E 004°20'3 0.1
2014-Apr-13 09:15N 51°20' E 004°18'1 1.8
2014-Apr-13 08:34N 51°21' E 004°18'1 1.2
2014-Apr-13 07:34N 51°21' E 004°16'8 8.0
2014-Apr-13 06:33N 51°22' E 004°03'6 5.8
2014-Apr-13 05:33N 51°22' E 003°54'9 8.6
2014-Apr-13 04:33N 51°25' E 003°42'9 8.7
2014-Apr-13 03:33N 51°25' E 003°28'1211.9
2014-Apr-13 02:33N 51°24' E 003°09'1313.2
2014-Apr-13 01:34N 51°22' E 002°48'1211.7
2014-Apr-13 00:33N 51°22' E 002°29'1413.8
2014-Apr-12 23:32N 51°15' E 002°09'1414.3
2014-Apr-12 22:34N 51°08' E 001°50'1514.9
2014-Apr-12 21:33N 50°58' E 001°32'1814.0
2014-Apr-12 20:17N 50°42' E 001°21'2513.5
2014-Apr-12 18:28N 50°29' E 000°48'1314.0
2014-Apr-12 17:33N 50°26' E 000°29'6112.1
2014-Apr-12 12:32N 50°09' W 001°03'1210.7
2014-Apr-12 11:26N 50°06' W 001°21'17310.1
2014-Apr-11 18:18N 50°43' W 005°46'  
2014-Apr-09 07:17N 50°28' W 005°49'  

Dump ship's entire track history

sailing weather and tide predictions

Mississippi Star — 9HA2441 — position and weather